createdAt,value
2017-08-19T00:00:08.535Z,40.7
2017-08-19T00:01:06.684Z,40.7
2017-08-19T00:02:06.760Z,40.7
2017-08-19T00:03:06.567Z,40.7
2017-08-19T00:04:09.964Z,40.7
2017-08-19T00:05:06.726Z,40.7
2017-08-19T00:06:06.894Z,40.7
2017-08-19T00:07:08.696Z,40.7
2017-08-19T00:08:07.105Z,40.7
2017-08-19T00:09:06.973Z,40.7
2017-08-19T00:10:07.243Z,40.7
2017-08-19T00:11:07.324Z,40.6
2017-08-19T00:12:11.076Z,40.6
2017-08-19T00:13:07.249Z,40.6
2017-08-19T00:14:07.324Z,40.6
2017-08-19T00:15:10.717Z,40.6
2017-08-19T00:16:07.669Z,40.6
2017-08-19T00:17:07.488Z,40.6
2017-08-19T00:18:07.720Z,40.6
2017-08-19T00:19:09.774Z,40.6
2017-08-19T00:20:07.730Z,40.6
2017-08-19T00:21:07.735Z,40.6
2017-08-19T00:22:07.877Z,40.6
2017-08-19T00:23:09.986Z,40.6
2017-08-19T00:24:08.306Z,40.6
2017-08-19T00:25:11.314Z,40.6
2017-08-19T00:26:08.084Z,40.6
2017-08-19T00:27:10.089Z,40.6
2017-08-19T00:28:08.438Z,40.6
2017-08-19T00:29:08.484Z,40.6
2017-08-19T00:30:08.671Z,40.6
2017-08-19T00:31:08.495Z,40.6
2017-08-19T00:32:11.645Z,40.6
2017-08-19T00:33:10.505Z,40.6
2017-08-19T00:34:08.681Z,40.6
2017-08-19T00:35:08.491Z,40.6
2017-08-19T00:36:08.679Z,40.6
2017-08-19T00:37:12.111Z,40.6
2017-08-19T00:38:08.750Z,40.6
2017-08-19T00:39:10.775Z,40.6
2017-08-19T00:40:08.953Z,40.6
2017-08-19T00:41:10.909Z,40.6
2017-08-19T00:42:09.074Z,40.6
2017-08-19T00:43:12.397Z,40.6
2017-08-19T00:44:08.942Z,40.6
2017-08-19T00:45:12.361Z,40.6
2017-08-19T00:46:09.088Z,40.6
2017-08-19T00:47:12.483Z,40.6
2017-08-19T00:48:12.951Z,40.6
2017-08-19T00:49:09.490Z,40.6
2017-08-19T00:50:09.291Z,40.6
2017-08-19T00:51:10.098Z,40.6
2017-08-19T00:52:12.697Z,40.6
2017-08-19T00:53:09.619Z,40.6
2017-08-19T00:54:09.655Z,40.6
2017-08-19T00:55:09.746Z,40.6
2017-08-19T00:56:11.532Z,40.6
2017-08-19T00:57:13.000Z,40.6
2017-08-19T00:58:09.753Z,40.6
2017-08-19T00:59:13.375Z,40.6
2017-08-19T01:00:11.922Z,40.6
2017-08-19T01:01:09.932Z,40.6
2017-08-19T01:02:10.121Z,40.6
2017-08-19T01:03:12.020Z,40.6
2017-08-19T01:04:13.546Z,40.6
2017-08-19T01:05:13.582Z,40.5
2017-08-19T01:06:10.237Z,40.5
2017-08-19T01:07:13.461Z,40.5
2017-08-19T01:08:12.110Z,40.5
2017-08-19T01:09:10.242Z,40.5
2017-08-19T01:10:10.503Z,40.5
2017-08-19T01:11:12.237Z,40.5
2017-08-19T01:12:14.122Z,40.5
2017-08-19T01:13:12.375Z,40.5
2017-08-19T01:14:14.047Z,40.5
2017-08-19T01:15:13.940Z,40.5
2017-08-19T01:16:12.843Z,40.5
2017-08-19T01:17:10.637Z,40.5
2017-08-19T01:18:11.082Z,40.5
2017-08-19T01:19:11.071Z,40.5
2017-08-19T01:20:11.619Z,40.5
2017-08-19T01:21:13.086Z,40.5
2017-08-19T01:22:14.831Z,40.5
2017-08-19T01:23:13.577Z,40.5
2017-08-19T01:24:11.436Z,40.5
2017-08-19T01:25:12.199Z,40.5
2017-08-19T01:26:13.058Z,40.5
2017-08-19T01:27:13.167Z,40.5
2017-08-19T01:28:14.516Z,40.5
2017-08-19T01:29:11.491Z,40.5
2017-08-19T01:30:11.559Z,40.5
2017-08-19T01:31:13.622Z,40.5
2017-08-19T01:32:11.546Z,40.5
2017-08-19T01:33:11.592Z,40.5
2017-08-19T01:34:11.616Z,40.5
2017-08-19T01:35:13.549Z,40.5
2017-08-19T01:36:15.194Z,40.5
2017-08-19T01:37:11.734Z,40.5
2017-08-19T01:38:11.924Z,40.5
2017-08-19T01:39:15.115Z,40.5
2017-08-19T01:40:11.883Z,40.5
2017-08-19T01:41:11.845Z,40.5
2017-08-19T01:42:15.766Z,40.5
2017-08-19T01:43:15.418Z,40.5
2017-08-19T01:44:14.063Z,40.5
2017-08-19T01:45:14.336Z,40.5
2017-08-19T01:46:12.449Z,40.5
2017-08-19T01:47:14.233Z,40.5
2017-08-19T01:48:14.840Z,40.5
2017-08-19T01:49:14.558Z,40.5
2017-08-19T01:50:12.637Z,40.4
2017-08-19T01:51:12.679Z,40.4
2017-08-19T01:52:14.675Z,40.4
2017-08-19T01:53:12.785Z,40.4
2017-08-19T01:54:16.331Z,40.4
2017-08-19T01:55:12.939Z,40.4
2017-08-19T01:56:16.641Z,40.4
2017-08-19T01:57:15.231Z,40.4
2017-08-19T01:58:15.302Z,40.4
2017-08-19T01:59:13.148Z,40.4
2017-08-19T02:00:13.073Z,40.4
2017-08-19T02:01:12.864Z,40.4
2017-08-19T02:02:12.870Z,40.4
2017-08-19T02:03:13.150Z,40.4
2017-08-19T02:04:13.023Z,40.4
2017-08-19T02:05:15.169Z,40.4
2017-08-19T02:06:13.062Z,40.4
2017-08-19T02:07:13.303Z,40.4
2017-08-19T02:08:15.110Z,40.4
2017-08-19T02:09:16.499Z,40.4
2017-08-19T02:10:16.520Z,40.4
2017-08-19T02:11:15.390Z,40.4
2017-08-19T02:12:13.484Z,40.4
2017-08-19T02:13:15.419Z,40.4
2017-08-19T02:14:16.692Z,40.4
2017-08-19T02:15:13.674Z,40.4
2017-08-19T02:16:16.803Z,40.4
2017-08-19T02:17:15.683Z,40.4
2017-08-19T02:18:16.982Z,40.4
2017-08-19T02:19:15.743Z,40.4
2017-08-19T02:20:14.048Z,40.4
2017-08-19T02:21:17.415Z,40.3
2017-08-19T02:22:17.263Z,40.4
2017-08-19T02:23:15.974Z,40.4
2017-08-19T02:24:15.967Z,40.4
2017-08-19T02:25:16.035Z,40.4
2017-08-19T02:26:16.706Z,40.4
2017-08-19T02:27:14.047Z,40.4
2017-08-19T02:28:14.001Z,40.4
2017-08-19T02:29:14.271Z,40.4
2017-08-19T02:30:15.941Z,40.4
2017-08-19T02:31:17.465Z,40.3
2017-08-19T02:32:14.179Z,40.3
2017-08-19T02:33:14.239Z,40.3
2017-08-19T02:34:17.931Z,40.3
2017-08-19T02:35:16.433Z,40.3
2017-08-19T02:36:14.380Z,40.3
2017-08-19T02:37:17.740Z,40.3
2017-08-19T02:38:14.620Z,40.3
2017-08-19T02:39:18.151Z,40.3
2017-08-19T02:40:16.484Z,40.3
2017-08-19T02:41:14.811Z,40.3
2017-08-19T02:42:18.192Z,40.3
2017-08-19T02:43:14.969Z,40.3
2017-08-19T02:44:14.913Z,40.3
2017-08-19T02:45:18.109Z,40.3
2017-08-19T02:46:14.993Z,40.3
2017-08-19T02:47:17.025Z,40.3
2017-08-19T02:48:18.268Z,40.3
2017-08-19T02:49:14.996Z,40.3
2017-08-19T02:50:15.217Z,40.3
2017-08-19T02:51:18.418Z,40.3
2017-08-19T02:52:15.108Z,40.3
2017-08-19T02:53:15.078Z,40.3
2017-08-19T02:54:15.072Z,40.3
2017-08-19T02:55:17.040Z,40.3
2017-08-19T02:56:17.114Z,40.3
2017-08-19T02:57:17.179Z,40.3
2017-08-19T02:58:15.537Z,40.3
2017-08-19T02:59:17.239Z,40.3
2017-08-19T03:00:18.748Z,40.3
2017-08-19T03:01:17.434Z,40.3
2017-08-19T03:02:18.901Z,40.3
2017-08-19T03:03:17.750Z,40.3
2017-08-19T03:04:15.923Z,40.3
2017-08-19T03:05:17.920Z,40.2
2017-08-19T03:06:16.122Z,40.2
2017-08-19T03:07:16.380Z,40.2
2017-08-19T03:08:16.173Z,40.3
2017-08-19T03:09:16.256Z,40.3
2017-08-19T03:10:18.336Z,40.3
2017-08-19T03:11:16.225Z,40.3
2017-08-19T03:12:16.182Z,40.3
2017-08-19T03:13:16.221Z,40.3
2017-08-19T03:14:16.280Z,40.2
2017-08-19T03:15:16.349Z,40.2
2017-08-19T03:16:19.755Z,40.2
2017-08-19T03:17:16.697Z,40.2
2017-08-19T03:18:18.710Z,40.2
2017-08-19T03:19:20.146Z,40.2
2017-08-19T03:20:18.579Z,40.2
2017-08-19T03:21:16.718Z,40.2
2017-08-19T03:22:16.991Z,40.2
2017-08-19T03:23:16.886Z,40.2
2017-08-19T03:24:18.995Z,40.2
2017-08-19T03:25:19.009Z,40.2
2017-08-19T03:26:20.231Z,40.2
2017-08-19T03:27:17.194Z,40.2
2017-08-19T03:28:17.023Z,40.2
2017-08-19T03:29:19.178Z,40.2
2017-08-19T03:30:20.717Z,40.2
2017-08-19T03:31:19.086Z,40.2
2017-08-19T03:32:20.506Z,40.2
2017-08-19T03:33:17.235Z,40.2
2017-08-19T03:34:17.499Z,40.2
2017-08-19T03:35:17.411Z,40.2
2017-08-19T03:36:20.729Z,40.1
2017-08-19T03:37:17.693Z,40.2
2017-08-19T03:38:20.885Z,40.2
2017-08-19T03:39:17.605Z,40.1
2017-08-19T03:40:19.772Z,40.2
2017-08-19T03:41:19.817Z,40.2
2017-08-19T03:42:21.106Z,40.2
2017-08-19T03:43:18.012Z,40.2
2017-08-19T03:44:17.935Z,40.2
2017-08-19T03:45:21.558Z,40.2
2017-08-19T03:46:18.111Z,40.2
2017-08-19T03:47:18.385Z,40.1
2017-08-19T03:48:18.464Z,40.1
2017-08-19T03:49:20.472Z,40.1
2017-08-19T03:50:20.294Z,40.1
2017-08-19T03:51:21.793Z,40.1
2017-08-19T03:52:22.055Z,40.1
2017-08-19T03:53:22.116Z,40.1
2017-08-19T03:54:20.502Z,40.1
2017-08-19T03:55:21.996Z,40.1
2017-08-19T03:56:18.980Z,40.1
2017-08-19T03:57:20.874Z,40.1
2017-08-19T03:58:22.353Z,40.1
2017-08-19T03:59:19.030Z,40.1
2017-08-19T04:00:21.025Z,40.1
2017-08-19T04:01:21.109Z,40.1
2017-08-19T04:02:19.210Z,40.1
2017-08-19T04:03:22.390Z,40.1
2017-08-19T04:04:22.457Z,40.1
2017-08-19T04:05:19.213Z,40.1
2017-08-19T04:06:21.429Z,40.1
2017-08-19T04:07:21.298Z,40.1
2017-08-19T04:08:21.392Z,40.1
2017-08-19T04:09:22.858Z,40.1
2017-08-19T04:10:23.116Z,40.1
2017-08-19T04:11:19.642Z,40.1
2017-08-19T04:12:23.063Z,40.1
2017-08-19T04:13:20.028Z,40.1
2017-08-19T04:14:19.833Z,40.1
2017-08-19T04:15:21.812Z,40.1
2017-08-19T04:16:22.052Z,40.1
2017-08-19T04:17:20.146Z,40.1
2017-08-19T04:18:20.150Z,40.1
2017-08-19T04:19:21.876Z,40.1
2017-08-19T04:20:20.247Z,40.1
2017-08-19T04:21:20.366Z,40.1
2017-08-19T04:22:20.385Z,40.1
2017-08-19T04:23:23.528Z,40.1
2017-08-19T04:24:20.242Z,40.1
2017-08-19T04:25:21.007Z,40
2017-08-19T04:26:23.836Z,40
2017-08-19T04:27:23.695Z,40
2017-08-19T04:28:22.316Z,40
2017-08-19T04:29:24.017Z,40
2017-08-19T04:30:20.652Z,40
2017-08-19T04:31:22.466Z,40
2017-08-19T04:32:20.621Z,40
2017-08-19T04:33:22.821Z,40
2017-08-19T04:34:20.749Z,40
2017-08-19T04:35:22.732Z,40
2017-08-19T04:36:23.010Z,40
2017-08-19T04:37:23.031Z,40
2017-08-19T04:38:24.294Z,40
2017-08-19T04:39:21.159Z,40
2017-08-19T04:40:20.963Z,40
2017-08-19T04:41:22.941Z,40
2017-08-19T04:42:23.017Z,40
2017-08-19T04:43:24.750Z,40
2017-08-19T04:44:21.284Z,40
2017-08-19T04:45:21.542Z,40
2017-08-19T04:46:24.755Z,40
2017-08-19T04:47:21.734Z,40
2017-08-19T04:48:21.809Z,40
2017-08-19T04:49:21.826Z,40
2017-08-19T04:50:23.544Z,40
2017-08-19T04:51:23.822Z,40
2017-08-19T04:52:25.254Z,40
2017-08-19T04:53:25.078Z,40
2017-08-19T04:54:25.384Z,40
2017-08-19T04:55:23.802Z,40
2017-08-19T04:56:22.168Z,40
2017-08-19T04:57:22.038Z,40
2017-08-19T04:58:22.158Z,40
2017-08-19T04:59:22.154Z,40
2017-08-19T05:00:24.147Z,40
2017-08-19T05:01:22.501Z,40
2017-08-19T05:02:25.897Z,39.9
2017-08-19T05:03:22.443Z,39.9
2017-08-19T05:04:26.078Z,39.9
2017-08-19T05:05:22.836Z,39.9
2017-08-19T05:06:22.752Z,39.9
2017-08-19T05:07:24.621Z,39.9
2017-08-19T05:08:26.285Z,39.9
2017-08-19T05:09:24.983Z,39.9
2017-08-19T05:10:24.757Z,39.9
2017-08-19T05:11:23.034Z,39.9
2017-08-19T05:12:25.027Z,39.9
2017-08-19T05:13:24.896Z,39.9
2017-08-19T05:14:23.023Z,39.9
2017-08-19T05:15:23.281Z,39.9
2017-08-19T05:16:26.676Z,39.9
2017-08-19T05:17:23.157Z,39.9
2017-08-19T05:18:26.751Z,39.9
2017-08-19T05:19:26.796Z,39.9
2017-08-19T05:20:23.523Z,39.9
2017-08-19T05:21:25.299Z,39.9
2017-08-19T05:22:26.963Z,39.9
2017-08-19T05:23:27.044Z,39.9
2017-08-19T05:24:25.445Z,39.9
2017-08-19T05:25:23.529Z,39.9
2017-08-19T05:26:25.419Z,39.8
2017-08-19T05:27:23.580Z,39.8
2017-08-19T05:28:25.710Z,39.8
2017-08-19T05:29:23.835Z,39.8
2017-08-19T05:30:25.856Z,39.8
2017-08-19T05:31:27.329Z,39.8
2017-08-19T05:32:23.855Z,39.8
2017-08-19T05:33:24.016Z,39.8
2017-08-19T05:34:27.378Z,39.8
2017-08-19T05:35:25.832Z,39.8
2017-08-19T05:36:26.102Z,39.8
2017-08-19T05:37:24.210Z,39.8
2017-08-19T05:38:27.308Z,39.8
2017-08-19T05:39:27.671Z,39.8
2017-08-19T05:40:24.352Z,39.8
2017-08-19T05:41:26.040Z,39.8
2017-08-19T05:42:24.229Z,39.8
2017-08-19T05:43:24.288Z,39.8
2017-08-19T05:44:26.265Z,39.8
2017-08-19T05:45:24.355Z,39.8
2017-08-19T05:46:26.526Z,39.8
2017-08-19T05:47:26.397Z,39.8
2017-08-19T05:48:28.127Z,39.8
2017-08-19T05:49:24.611Z,39.7
2017-08-19T05:50:26.572Z,39.7
2017-08-19T05:51:26.838Z,39.7
2017-08-19T05:52:24.933Z,39.7
2017-08-19T05:53:24.792Z,39.7
2017-08-19T05:54:24.845Z,39.7
2017-08-19T05:55:28.428Z,39.7
2017-08-19T05:56:28.457Z,39.7
2017-08-19T05:57:24.901Z,39.7
2017-08-19T05:58:24.972Z,39.7
2017-08-19T05:59:25.030Z,39.7
2017-08-19T06:00:28.659Z,39.7
2017-08-19T06:01:25.162Z,39.7
2017-08-19T06:02:25.390Z,39.7
2017-08-19T06:03:25.482Z,39.7
2017-08-19T06:04:27.403Z,39.7
2017-08-19T06:05:25.565Z,39.7
2017-08-19T06:06:25.572Z,39.7
2017-08-19T06:07:29.183Z,39.7
2017-08-19T06:08:25.520Z,39.7
2017-08-19T06:09:25.629Z,39.6
2017-08-19T06:10:29.159Z,39.6
2017-08-19T06:11:25.707Z,39.6
2017-08-19T06:12:26.007Z,39.6
2017-08-19T06:13:26.223Z,39.6
2017-08-19T06:14:26.138Z,39.6
2017-08-19T06:15:29.475Z,39.6
2017-08-19T06:16:28.095Z,39.6
2017-08-19T06:17:29.630Z,39.6
2017-08-19T06:18:29.718Z,39.6
2017-08-19T06:19:28.331Z,39.6
2017-08-19T06:20:28.177Z,39.6
2017-08-19T06:21:26.503Z,39.5
2017-08-19T06:22:26.592Z,39.5
2017-08-19T06:23:26.628Z,39.5
2017-08-19T06:24:28.553Z,39.5
2017-08-19T06:25:29.912Z,39.5
2017-08-19T06:26:26.458Z,39.5
2017-08-19T06:27:28.465Z,39.5
2017-08-19T06:28:28.437Z,39.5
2017-08-19T06:29:28.468Z,39.5
2017-08-19T06:30:30.186Z,39.5
2017-08-19T06:31:27.096Z,39.5
2017-08-19T06:32:30.306Z,39.5
2017-08-19T06:33:26.853Z,39.5
2017-08-19T06:34:29.066Z,39.4
2017-08-19T06:35:27.174Z,39.4
2017-08-19T06:36:28.903Z,39.4
2017-08-19T06:37:27.327Z,39.4
2017-08-19T06:38:27.358Z,39.4
2017-08-19T06:39:27.327Z,39.4
2017-08-19T06:40:27.227Z,39.4
2017-08-19T06:41:30.582Z,39.4
2017-08-19T06:42:29.207Z,39.4
2017-08-19T06:43:27.621Z,39.3
2017-08-19T06:44:30.766Z,39.3
2017-08-19T06:45:27.498Z,39.3
2017-08-19T06:46:27.554Z,39.3
2017-08-19T06:47:29.775Z,39.3
2017-08-19T06:48:27.765Z,39.3
2017-08-19T06:49:27.928Z,39.3
2017-08-19T06:50:27.856Z,39.3
2017-08-19T06:51:27.873Z,39.3
2017-08-19T06:52:29.851Z,39.3
2017-08-19T06:53:28.207Z,39.2
2017-08-19T06:54:28.069Z,39.2
2017-08-19T06:55:30.508Z,39.2
2017-08-19T06:56:30.155Z,39.2
2017-08-19T06:57:31.612Z,39.2
2017-08-19T06:58:28.325Z,39.2
2017-08-19T06:59:28.403Z,39.2
2017-08-19T07:00:28.496Z,39.2
2017-08-19T07:01:32.057Z,39.2
2017-08-19T07:02:28.716Z,39.2
2017-08-19T07:03:28.825Z,39.2
2017-08-19T07:04:31.966Z,39.2
2017-08-19T07:05:28.775Z,39.2
2017-08-19T07:06:28.835Z,39.1
2017-08-19T07:07:29.056Z,39.1
2017-08-19T07:08:32.381Z,39.1
2017-08-19T07:09:31.086Z,39.1
2017-08-19T07:10:30.888Z,39.1
2017-08-19T07:11:31.112Z,39.1
2017-08-19T07:12:28.978Z,39.1
2017-08-19T07:13:29.105Z,39.1
2017-08-19T07:14:29.136Z,39.1
2017-08-19T07:15:29.389Z,39.1
2017-08-19T07:16:31.173Z,39.1
2017-08-19T07:17:32.659Z,39.1
2017-08-19T07:18:31.455Z,39.1
2017-08-19T07:19:29.462Z,39
2017-08-19T07:20:30.773Z,39
2017-08-19T07:21:29.769Z,39
2017-08-19T07:22:29.773Z,39
2017-08-19T07:23:31.731Z,39
2017-08-19T07:24:29.826Z,39
2017-08-19T07:25:29.737Z,39
2017-08-19T07:26:29.780Z,39
2017-08-19T07:27:29.979Z,39
2017-08-19T07:28:31.751Z,39
2017-08-19T07:29:32.040Z,39
2017-08-19T07:30:29.924Z,39
2017-08-19T07:31:30.139Z,38.9
2017-08-19T07:32:33.487Z,38.9
2017-08-19T07:33:31.921Z,38.9
2017-08-19T07:34:30.094Z,38.9
2017-08-19T07:35:32.001Z,38.9
2017-08-19T07:36:30.165Z,38.9
2017-08-19T07:37:32.358Z,38.9
2017-08-19T07:38:33.801Z,38.9
2017-08-19T07:39:30.360Z,38.9
2017-08-19T07:40:33.889Z,38.9
2017-08-19T07:41:30.558Z,38.9
2017-08-19T07:42:30.450Z,38.8
2017-08-19T07:43:32.380Z,38.9
2017-08-19T07:44:30.711Z,38.8
2017-08-19T07:45:32.487Z,38.8
2017-08-19T07:46:30.581Z,38.8
2017-08-19T07:47:30.694Z,38.8
2017-08-19T07:48:30.700Z,38.8
2017-08-19T07:49:30.907Z,38.8
2017-08-19T07:50:34.101Z,38.8
2017-08-19T07:51:34.169Z,38.8
2017-08-19T07:52:34.238Z,38.8
2017-08-19T07:53:32.864Z,38.8
2017-08-19T07:54:31.240Z,38.8
2017-08-19T07:55:34.621Z,38.7
2017-08-19T07:56:31.329Z,38.7
2017-08-19T07:57:31.415Z,38.7
2017-08-19T07:58:31.319Z,38.7
2017-08-19T07:59:31.542Z,38.7
2017-08-19T08:00:31.782Z,38.7
2017-08-19T08:01:31.593Z,38.7
2017-08-19T08:02:33.630Z,38.7
2017-08-19T08:03:31.717Z,38.7
2017-08-19T08:04:33.491Z,38.7
2017-08-19T08:05:35.177Z,38.7
2017-08-19T08:06:33.994Z,38.6
2017-08-19T08:07:31.760Z,38.6
2017-08-19T08:08:31.969Z,38.6
2017-08-19T08:09:32.020Z,38.6
2017-08-19T08:10:33.840Z,38.6
2017-08-19T08:11:31.984Z,38.6
2017-08-19T08:12:35.705Z,38.6
2017-08-19T08:13:32.256Z,38.6
2017-08-19T08:14:32.308Z,38.6
2017-08-19T08:15:35.696Z,38.6
2017-08-19T08:16:34.129Z,38.6
2017-08-19T08:17:35.808Z,38.6
2017-08-19T08:18:32.438Z,38.6
2017-08-19T08:19:34.457Z,38.5
2017-08-19T08:20:32.553Z,38.6
2017-08-19T08:21:32.369Z,38.5
2017-08-19T08:22:32.558Z,38.5
2017-08-19T08:23:34.319Z,38.5
2017-08-19T08:24:34.538Z,38.5
2017-08-19T08:25:34.614Z,38.5
2017-08-19T08:26:32.751Z,38.5
2017-08-19T08:27:35.972Z,38.5
2017-08-19T08:28:32.659Z,38.5
2017-08-19T08:29:34.838Z,38.5
2017-08-19T08:30:33.137Z,38.5
2017-08-19T08:31:33.026Z,38.5
2017-08-19T08:32:34.981Z,38.5
2017-08-19T08:33:34.788Z,38.5
2017-08-19T08:34:35.021Z,38.5
2017-08-19T08:35:34.763Z,38.5
2017-08-19T08:36:33.390Z,38.4
2017-08-19T08:37:36.304Z,38.4
2017-08-19T08:38:36.575Z,38.4
2017-08-19T08:39:35.207Z,38.4
2017-08-19T08:40:35.242Z,38.4
2017-08-19T08:41:36.518Z,38.4
2017-08-19T08:42:33.422Z,38.4
2017-08-19T08:43:35.167Z,38.4
2017-08-19T08:44:36.618Z,38.4
2017-08-19T08:45:33.322Z,38.4
2017-08-19T08:46:33.599Z,38.4
2017-08-19T08:47:33.414Z,38.4
2017-08-19T08:48:33.656Z,38.4
2017-08-19T08:49:37.091Z,38.4
2017-08-19T08:50:35.480Z,38.4
2017-08-19T08:51:35.567Z,38.4
2017-08-19T08:52:33.718Z,38.4
2017-08-19T08:53:37.107Z,38.4
2017-08-19T08:54:34.197Z,38.4
2017-08-19T08:55:33.902Z,38.4
2017-08-19T08:56:34.197Z,38.4
2017-08-19T08:57:36.127Z,38.4
2017-08-19T08:58:37.424Z,38.3
2017-08-19T08:59:37.700Z,38.3
2017-08-19T09:00:34.368Z,38.3
2017-08-19T09:01:34.394Z,38.3
2017-08-19T09:02:36.394Z,38.3
2017-08-19T09:03:34.544Z,38.3
2017-08-19T09:04:37.740Z,38.3
2017-08-19T09:05:34.893Z,38.3
2017-08-19T09:06:37.912Z,38.3
2017-08-19T09:07:34.838Z,38.3
2017-08-19T09:08:34.929Z,38.3
2017-08-19T09:09:34.729Z,38.3
2017-08-19T09:10:38.175Z,38.3
2017-08-19T09:11:38.425Z,38.3
2017-08-19T09:12:35.178Z,38.3
2017-08-19T09:13:37.114Z,38.3
2017-08-19T09:14:38.528Z,38.3
2017-08-19T09:15:35.096Z,38.3
2017-08-19T09:16:37.243Z,38.3
2017-08-19T09:17:37.404Z,38.3
2017-08-19T09:18:38.681Z,38.3
2017-08-19T09:19:35.130Z,38.3
2017-08-19T09:20:35.334Z,38.3
2017-08-19T09:21:35.235Z,38.3
2017-08-19T09:22:35.488Z,38.3
2017-08-19T09:23:35.736Z,38.2
2017-08-19T09:24:35.408Z,38.2
2017-08-19T09:25:35.692Z,38.2
2017-08-19T09:26:38.852Z,38.2
2017-08-19T09:27:35.573Z,38.2
2017-08-19T09:28:38.969Z,38.2
2017-08-19T09:29:39.194Z,38.2
2017-08-19T09:30:35.759Z,38.2
2017-08-19T09:31:36.077Z,38.2
2017-08-19T09:32:36.091Z,38.2
2017-08-19T09:33:37.871Z,38.2
2017-08-19T09:34:36.265Z,38.1
2017-08-19T09:35:38.349Z,38.1
2017-08-19T09:36:36.292Z,38.1
2017-08-19T09:37:38.237Z,38.1
2017-08-19T09:38:38.053Z,38.1
2017-08-19T09:39:36.414Z,38.1
2017-08-19T09:40:38.444Z,38.1
2017-08-19T09:41:39.817Z,38
2017-08-19T09:42:39.722Z,38
2017-08-19T09:43:39.785Z,38
2017-08-19T09:44:36.523Z,38
2017-08-19T09:45:39.856Z,38
2017-08-19T09:46:38.489Z,37.9
2017-08-19T09:47:38.949Z,37.9
2017-08-19T09:48:36.765Z,37.9
2017-08-19T09:49:40.279Z,37.9
2017-08-19T09:50:40.151Z,37.9
2017-08-19T09:51:40.244Z,37.9
2017-08-19T09:52:37.199Z,37.9
2017-08-19T09:53:37.435Z,37.9
2017-08-19T09:54:38.976Z,37.8
2017-08-19T09:55:37.137Z,37.8
2017-08-19T09:56:39.051Z,37.8
2017-08-19T09:57:37.292Z,37.8
2017-08-19T09:58:37.236Z,37.8
2017-08-19T09:59:41.027Z,37.8
2017-08-19T10:00:39.285Z,37.8
2017-08-19T10:01:37.426Z,37.8
2017-08-19T10:02:41.039Z,37.8
2017-08-19T10:03:39.695Z,37.8
2017-08-19T10:04:37.656Z,37.7
2017-08-19T10:05:38.075Z,37.7
2017-08-19T10:06:41.353Z,37.7
2017-08-19T10:07:39.819Z,37.7
2017-08-19T10:08:41.493Z,37.7
2017-08-19T10:09:38.165Z,37.7
2017-08-19T10:10:41.382Z,37.7
2017-08-19T10:11:38.429Z,37.7
2017-08-19T10:12:38.376Z,37.7
2017-08-19T10:13:38.462Z,37.7
2017-08-19T10:14:40.440Z,37.7
2017-08-19T10:15:41.696Z,37.6
2017-08-19T10:16:40.495Z,37.6
2017-08-19T10:17:38.630Z,37.6
2017-08-19T10:18:40.336Z,37.6
2017-08-19T10:19:38.691Z,37.6
2017-08-19T10:20:41.812Z,37.6
2017-08-19T10:21:38.540Z,37.6
2017-08-19T10:22:42.229Z,37.6
2017-08-19T10:23:41.934Z,37.6
2017-08-19T10:24:38.915Z,37.6
2017-08-19T10:25:42.211Z,37.6
2017-08-19T10:26:38.719Z,37.6
2017-08-19T10:27:38.740Z,37.6
2017-08-19T10:28:38.920Z,37.6
2017-08-19T10:29:38.750Z,37.6
2017-08-19T10:30:42.346Z,37.6
2017-08-19T10:31:42.200Z,37.6
2017-08-19T10:32:40.858Z,37.6
2017-08-19T10:33:40.869Z,37.6
2017-08-19T10:34:42.668Z,37.6
2017-08-19T10:35:39.049Z,37.6
2017-08-19T10:36:42.639Z,37.6
2017-08-19T10:37:39.365Z,37.6
2017-08-19T10:38:39.444Z,37.6
2017-08-19T10:39:41.483Z,37.6
2017-08-19T10:40:39.774Z,37.7
2017-08-19T10:41:41.567Z,37.7
2017-08-19T10:42:39.632Z,37.7
2017-08-19T10:43:39.551Z,37.7
2017-08-19T10:44:46.883Z,37.7
2017-08-19T10:45:43.008Z,37.7
2017-08-19T10:46:39.854Z,37.7
2017-08-19T10:47:41.887Z,37.7
2017-08-19T10:48:39.784Z,37.7
2017-08-19T10:49:40.033Z,37.7
2017-08-19T10:50:43.212Z,37.7
2017-08-19T10:51:43.194Z,37.7
2017-08-19T10:52:40.296Z,37.7
2017-08-19T10:53:41.914Z,37.7
2017-08-19T10:54:40.300Z,37.7
2017-08-19T10:55:42.132Z,37.7
2017-08-19T10:56:42.415Z,37.7
2017-08-19T10:57:40.564Z,37.7
2017-08-19T10:58:40.592Z,37.7
2017-08-19T10:59:43.760Z,37.7
2017-08-19T11:00:42.628Z,37.7
2017-08-19T11:01:40.736Z,37.7
2017-08-19T11:02:40.556Z,37.7
2017-08-19T11:03:43.955Z,37.7
2017-08-19T11:04:40.862Z,37.7
2017-08-19T11:05:44.284Z,37.7
2017-08-19T11:06:42.668Z,37.7
2017-08-19T11:07:42.962Z,37.8
2017-08-19T11:08:43.007Z,37.8
2017-08-19T11:09:41.103Z,37.8
2017-08-19T11:10:43.237Z,37.8
2017-08-19T11:11:44.329Z,37.8
2017-08-19T11:12:41.035Z,37.8
2017-08-19T11:13:41.033Z,37.8
2017-08-19T11:14:43.029Z,37.8
2017-08-19T11:15:44.809Z,37.8
2017-08-19T11:16:41.516Z,37.8
2017-08-19T11:17:44.867Z,37.8
2017-08-19T11:18:43.578Z,37.8
2017-08-19T11:19:41.437Z,37.8
2017-08-19T11:20:45.038Z,37.8
2017-08-19T11:21:43.700Z,37.8
2017-08-19T11:22:41.975Z,37.8
2017-08-19T11:23:41.654Z,37.8
2017-08-19T11:24:43.869Z,37.8
2017-08-19T11:25:43.984Z,37.8
2017-08-19T11:26:43.979Z,37.8
2017-08-19T11:27:43.813Z,37.8
2017-08-19T11:28:42.215Z,37.8
2017-08-19T11:29:45.330Z,37.8
2017-08-19T11:30:42.283Z,37.8
2017-08-19T11:31:44.294Z,37.8
2017-08-19T11:32:42.201Z,37.8
2017-08-19T11:33:42.490Z,37.8
2017-08-19T11:34:42.498Z,37.8
2017-08-19T11:35:45.930Z,37.8
2017-08-19T11:36:42.675Z,37.8
2017-08-19T11:37:42.542Z,37.8
2017-08-19T11:38:42.629Z,37.8
2017-08-19T11:39:44.767Z,37.8
2017-08-19T11:40:46.212Z,37.8
2017-08-19T11:41:42.960Z,37.8
2017-08-19T11:42:46.369Z,37.8
2017-08-19T11:43:42.911Z,37.8
2017-08-19T11:44:45.068Z,37.8
2017-08-19T11:45:43.025Z,37.9
2017-08-19T11:46:43.508Z,37.9
2017-08-19T11:47:46.748Z,37.9
2017-08-19T11:48:46.777Z,37.9
2017-08-19T11:49:46.830Z,37.9
2017-08-19T11:50:45.326Z,37.9
2017-08-19T11:51:46.710Z,37.9
2017-08-19T11:52:43.435Z,37.9
2017-08-19T11:53:43.720Z,37.9
2017-08-19T11:54:45.430Z,37.9
2017-08-19T11:55:43.531Z,37.9
2017-08-19T11:56:47.166Z,37.9
2017-08-19T11:57:43.860Z,37.9
2017-08-19T11:58:45.581Z,37.9
2017-08-19T11:59:43.728Z,37.9
2017-08-19T12:00:43.863Z,37.9
2017-08-19T12:01:45.741Z,37.9
2017-08-19T12:02:44.111Z,37.9
2017-08-19T12:03:44.125Z,37.9
2017-08-19T12:04:45.837Z,37.9
2017-08-19T12:05:47.508Z,37.9
2017-08-19T12:06:47.300Z,37.9
2017-08-19T12:07:44.089Z,37.9
2017-08-19T12:08:44.074Z,37.9
2017-08-19T12:09:47.685Z,37.9
2017-08-19T12:10:46.364Z,37.9
2017-08-19T12:11:47.686Z,37.9
2017-08-19T12:12:44.593Z,37.9
2017-08-19T12:13:47.742Z,37.9
2017-08-19T12:14:46.588Z,37.8
2017-08-19T12:15:44.482Z,37.8
2017-08-19T12:16:44.571Z,37.9
2017-08-19T12:17:46.752Z,37.8
2017-08-19T12:18:47.982Z,37.8
2017-08-19T12:19:44.640Z,37.8
2017-08-19T12:20:44.913Z,37.8
2017-08-19T12:21:44.724Z,37.8
2017-08-19T12:22:44.820Z,37.8
2017-08-19T12:23:47.030Z,37.8
2017-08-19T12:24:44.928Z,37.8
2017-08-19T12:25:44.999Z,37.8
2017-08-19T12:26:45.045Z,37.8
2017-08-19T12:27:48.363Z,37.8
2017-08-19T12:28:47.175Z,37.8
2017-08-19T12:29:45.069Z,37.9
2017-08-19T12:30:45.360Z,37.8
2017-08-19T12:31:48.741Z,37.8
2017-08-19T12:32:48.553Z,37.8
2017-08-19T12:33:48.588Z,37.8
2017-08-19T12:34:45.343Z,37.8
2017-08-19T12:35:45.571Z,37.8
2017-08-19T12:36:47.495Z,37.8
2017-08-19T12:37:48.942Z,37.8
2017-08-19T12:38:47.545Z,37.9
2017-08-19T12:39:45.669Z,37.9
2017-08-19T12:40:47.391Z,37.9
2017-08-19T12:41:45.786Z,37.9
2017-08-19T12:42:45.588Z,37.9
2017-08-19T12:43:47.541Z,37.9
2017-08-19T12:44:48.971Z,37.9
2017-08-19T12:45:47.846Z,37.9
2017-08-19T12:46:47.901Z,37.9
2017-08-19T12:47:49.353Z,37.9
2017-08-19T12:48:47.715Z,37.9
2017-08-19T12:49:47.789Z,37.9
2017-08-19T12:50:45.965Z,37.9
2017-08-19T12:51:45.996Z,37.9
2017-08-19T12:52:48.220Z,37.9
2017-08-19T12:53:46.323Z,37.9
2017-08-19T12:54:48.242Z,37.9
2017-08-19T12:55:48.107Z,37.9
2017-08-19T12:56:49.547Z,37.9
2017-08-19T12:57:48.454Z,37.9
2017-08-19T12:58:49.895Z,37.9
2017-08-19T12:59:46.592Z,37.9
2017-08-19T13:00:46.416Z,37.9
2017-08-19T13:01:49.982Z,37.9
2017-08-19T13:02:49.799Z,37.9
2017-08-19T13:03:46.669Z,37.9
2017-08-19T13:04:49.825Z,37.9
2017-08-19T13:05:48.522Z,37.9
2017-08-19T13:06:49.901Z,37.9
2017-08-19T13:07:49.935Z,37.9
2017-08-19T13:08:50.021Z,37.9
2017-08-19T13:09:50.082Z,37.9
2017-08-19T13:10:50.357Z,37.9
2017-08-19T13:11:47.137Z,37.9
2017-08-19T13:12:49.093Z,37.9
2017-08-19T13:13:47.195Z,37.9
2017-08-19T13:14:49.201Z,37.9
2017-08-19T13:15:47.163Z,37.9
2017-08-19T13:16:50.508Z,37.9
2017-08-19T13:17:49.182Z,37.9
2017-08-19T13:18:49.179Z,37.9
2017-08-19T13:19:50.641Z,37.9
2017-08-19T13:20:47.351Z,37.9
2017-08-19T13:21:47.622Z,37.9
2017-08-19T13:22:49.670Z,37.9